createdAt,value
2022-12-12T00:01:44.454Z,-3.50
2022-12-12T00:04:14.180Z,-3.20
2022-12-12T00:06:40.952Z,-3.10
2022-12-12T00:09:07.878Z,-1.50
2022-12-12T00:11:34.697Z,-3.80
2022-12-12T00:14:04.258Z,-3.20
2022-12-12T00:16:31.097Z,-5.10
2022-12-12T00:18:57.834Z,-2.60
2022-12-12T00:21:25.985Z,-2.30
2022-12-12T00:23:53.458Z,-2.20
2022-12-12T00:26:22.025Z,-2.00
2022-12-12T00:28:52.156Z,-4.00
2022-12-12T00:31:19.016Z,-2.70
2022-12-12T00:33:48.238Z,-4.70
2022-12-12T00:36:15.352Z,-3.00
2022-12-12T00:38:42.144Z,-2.90
2022-12-12T00:41:09.378Z,-2.90
2022-12-12T00:43:36.142Z,-2.30
2022-12-12T00:46:02.971Z,-4.60
2022-12-12T00:48:30.115Z,-3.50
2022-12-12T00:50:57.063Z,-2.90
2022-12-12T00:53:24.339Z,-3.90
2022-12-12T00:55:55.072Z,-3.80
2022-12-12T00:58:21.858Z,-4.30
2022-12-12T01:00:48.622Z,-4.60
2022-12-12T01:03:15.408Z,-3.00
2022-12-12T01:05:42.254Z,-3.40
2022-12-12T01:08:09.048Z,-2.60
2022-12-12T01:10:36.049Z,-2.90
2022-12-12T01:13:03.036Z,-2.70
2022-12-12T01:15:29.957Z,-2.50
2022-12-12T01:17:56.772Z,-2.80
2022-12-12T01:20:26.992Z,-2.20
2022-12-12T01:22:54.293Z,-2.70
2022-12-12T01:25:21.133Z,-2.20
2022-12-12T01:27:48.243Z,-4.30
2022-12-12T01:30:16.165Z,-1.90
2022-12-12T01:32:42.899Z,-3.00
2022-12-12T01:35:10.040Z,-3.60
2022-12-12T01:37:38.400Z,-4.00
2022-12-12T01:40:07.776Z,-3.70
2022-12-12T01:42:34.739Z,-3.90
2022-12-12T01:45:03.501Z,-2.30
2022-12-12T01:47:30.237Z,-4.10
2022-12-12T01:50:08.273Z,-3.40
2022-12-12T01:52:39.798Z,-3.80
2022-12-12T01:55:07.410Z,-3.90
2022-12-12T01:57:36.563Z,-3.40
2022-12-12T02:00:05.203Z,-1.90
2022-12-12T02:02:32.248Z,-3.70
2022-12-12T02:05:00.736Z,-1.70
2022-12-12T02:07:27.445Z,-2.10
2022-12-12T02:09:54.214Z,-1.80
2022-12-12T02:12:20.959Z,-4.00
2022-12-12T02:14:49.697Z,-1.90
2022-12-12T02:17:46.024Z,-4.70
2022-12-12T02:20:32.858Z,-4.30
2022-12-12T02:23:02.727Z,-3.70
2022-12-12T02:25:29.447Z,-3.90
2022-12-12T02:28:11.454Z,-1.40
2022-12-12T02:30:57.122Z,-4.00
2022-12-12T02:33:37.062Z,-5.00
2022-12-12T02:36:09.522Z,-3.80
2022-12-12T02:38:39.326Z,-2.20
2022-12-12T02:41:32.364Z,-3.90
2022-12-12T02:43:59.168Z,-4.00
2022-12-12T02:46:29.934Z,-3.50
2022-12-12T02:48:56.745Z,-2.80
2022-12-12T02:51:24.110Z,-3.20
2022-12-12T02:53:50.799Z,-3.60
2022-12-12T02:56:36.258Z,-1.70
2022-12-12T02:59:03.022Z,-3.20
2022-12-12T03:01:36.504Z,-2.20
2022-12-12T03:04:48.912Z,-1.70
2022-12-12T03:07:39.910Z,-2.30
2022-12-12T03:10:12.455Z,-3.60
2022-12-12T03:12:49.009Z,-3.90
2022-12-12T03:15:15.677Z,-3.30
2022-12-12T03:17:42.618Z,-2.40
2022-12-12T03:20:19.401Z,-2.30
2022-12-12T03:22:52.075Z,-3.30
2022-12-12T03:25:26.708Z,-2.40
2022-12-12T03:28:05.461Z,-3.50
2022-12-12T03:30:35.387Z,-1.80
2022-12-12T03:33:10.025Z,-2.00
2022-12-12T03:35:39.252Z,-4.30
2022-12-12T03:38:14.348Z,-3.80
2022-12-12T03:40:46.572Z,-3.10
2022-12-12T03:43:19.011Z,-3.80
2022-12-12T03:46:12.247Z,-3.10
2022-12-12T03:48:43.809Z,-3.90
2022-12-12T03:51:12.667Z,-2.30
2022-12-12T03:53:39.561Z,-2.00
2022-12-12T03:56:25.080Z,-1.60
2022-12-12T03:58:54.393Z,-4.30
2022-12-12T04:01:23.485Z,-4.40
2022-12-12T04:03:56.603Z,-2.80
2022-12-12T04:06:29.592Z,-3.70
2022-12-12T04:09:34.238Z,-4.50
2022-12-12T04:12:37.982Z,-4.40
2022-12-12T04:15:04.752Z,-4.60
2022-12-12T04:17:51.237Z,-3.60
2022-12-12T04:21:09.013Z,-4.80
2022-12-12T04:23:53.792Z,-5.20
2022-12-12T04:26:39.272Z,-5.20
2022-12-12T04:29:05.916Z,-4.40
2022-12-12T04:31:34.401Z,-5.80
2022-12-12T04:34:04.062Z,-3.40
2022-12-12T04:36:31.795Z,-3.10
2022-12-12T04:38:59.513Z,-5.30
2022-12-12T04:41:29.721Z,-3.20
2022-12-12T04:43:56.722Z,-5.60
2022-12-12T04:46:26.455Z,-5.50
2022-12-12T04:48:53.858Z,-3.70
2022-12-12T04:51:28.910Z,-3.20
2022-12-12T04:54:02.339Z,-5.70
2022-12-12T04:56:30.510Z,-5.40
2022-12-12T04:58:57.693Z,-3.90
2022-12-12T05:01:24.477Z,-6.50
2022-12-12T05:03:54.139Z,-3.40
2022-12-12T05:06:23.127Z,-4.20
2022-12-12T05:08:54.281Z,-6.10
2022-12-12T05:11:22.316Z,-5.40
2022-12-12T05:13:49.240Z,-6.40
2022-12-12T05:16:24.749Z,-6.10
2022-12-12T05:18:51.572Z,-6.10
2022-12-12T05:21:18.453Z,-4.50
2022-12-12T05:23:45.187Z,-4.60
2022-12-12T05:26:35.446Z,-5.50
2022-12-12T05:29:07.271Z,-5.70
2022-12-12T05:31:34.956Z,-6.60
2022-12-12T05:34:01.759Z,-4.70
2022-12-12T05:36:28.483Z,-6.60
2022-12-12T05:38:55.175Z,-4.70
2022-12-12T05:41:21.966Z,-5.10
2022-12-12T05:43:48.710Z,-6.20
2022-12-12T05:46:15.521Z,-6.90
2022-12-12T05:48:43.227Z,-6.70
2022-12-12T05:51:09.990Z,-5.60
2022-12-12T05:53:42.855Z,-6.50
2022-12-12T05:56:11.532Z,-5.00
2022-12-12T05:58:38.926Z,-6.20
2022-12-12T06:01:05.888Z,-6.90
2022-12-12T06:03:32.767Z,-6.20
2022-12-12T06:05:59.919Z,-7.10
2022-12-12T06:08:26.695Z,-6.00
2022-12-12T06:10:53.374Z,-4.40
2022-12-12T06:13:20.028Z,-6.90
2022-12-12T06:15:49.176Z,-6.80
2022-12-12T06:18:18.731Z,-6.50
2022-12-12T06:20:45.536Z,-4.30
2022-12-12T06:23:12.318Z,-6.70
2022-12-12T06:25:39.056Z,-6.90
2022-12-12T06:28:05.894Z,-4.10
2022-12-12T06:30:32.588Z,-7.20
2022-12-12T06:32:59.247Z,-6.80
2022-12-12T06:35:25.932Z,-7.10
2022-12-12T06:37:52.677Z,-4.60
2022-12-12T06:40:19.365Z,-7.40
2022-12-12T06:42:48.506Z,-6.60
2022-12-12T06:45:16.540Z,-5.40
2022-12-12T06:47:43.610Z,-6.80
2022-12-12T06:50:10.835Z,-5.10
2022-12-12T06:52:37.559Z,-5.10
2022-12-12T06:55:12.385Z,-5.80
2022-12-12T06:57:39.411Z,-6.30
2022-12-12T07:00:06.442Z,-4.70
2022-12-12T07:02:33.239Z,-6.40
2022-12-12T07:04:59.871Z,-6.80
2022-12-12T07:07:26.587Z,-5.60
2022-12-12T07:09:53.299Z,-4.70
2022-12-12T07:12:20.088Z,-7.10
2022-12-12T07:14:46.803Z,-4.80
2022-12-12T07:17:22.907Z,-5.40
2022-12-12T07:19:49.576Z,-6.80
2022-12-12T07:22:16.427Z,-7.20
2022-12-12T07:24:43.192Z,-6.50
2022-12-12T07:27:10.133Z,-5.10
2022-12-12T07:29:36.797Z,-5.50
2022-12-12T07:32:03.586Z,-7.50
2022-12-12T07:34:30.301Z,-6.20
2022-12-12T07:37:02.520Z,-7.20
2022-12-12T07:39:31.178Z,-4.90
2022-12-12T07:41:58.337Z,-5.00
2022-12-12T07:44:25.167Z,-5.20
2022-12-12T07:46:51.956Z,-5.00
2022-12-12T07:49:18.738Z,-7.40
2022-12-12T07:51:48.973Z,-3.90
2022-12-12T07:54:16.340Z,-6.20
2022-12-12T07:56:43.076Z,-4.80
2022-12-12T07:59:09.870Z,-6.50
2022-12-12T08:01:36.795Z,-6.50
2022-12-12T08:04:03.944Z,-6.30
2022-12-12T08:06:31.186Z,-5.60
2022-12-12T08:08:58.330Z,-5.30
2022-12-12T08:11:25.628Z,-3.40
2022-12-12T08:13:53.285Z,-6.30
2022-12-12T08:16:22.295Z,-4.20
2022-12-12T08:18:50.048Z,-4.10
2022-12-12T08:21:24.744Z,-4.20
2022-12-12T08:23:57.689Z,-3.60
2022-12-12T08:26:24.606Z,-5.60
2022-12-12T08:28:52.189Z,-5.70
2022-12-12T08:31:20.544Z,-5.90
2022-12-12T08:33:47.785Z,-6.20
2022-12-12T08:36:18.009Z,-3.30
2022-12-12T08:38:44.788Z,-5.20
2022-12-12T08:41:12.238Z,-6.30
2022-12-12T08:43:41.165Z,-5.80
2022-12-12T08:46:13.711Z,-5.40
2022-12-12T08:48:43.616Z,-5.20
2022-12-12T08:51:10.415Z,-5.90
2022-12-12T08:53:37.387Z,-3.80
2022-12-12T08:56:04.152Z,-4.90
2022-12-12T08:58:30.880Z,-4.20
2022-12-12T09:00:58.034Z,-2.90
2022-12-12T09:03:29.229Z,-3.10
2022-12-12T09:05:56.661Z,-2.20
2022-12-12T09:08:23.304Z,-4.10
2022-12-12T09:10:51.857Z,-4.50
2022-12-12T09:13:18.683Z,-3.70
2022-12-12T09:15:45.348Z,-1.60
2022-12-12T09:18:12.358Z,-2.10
2022-12-12T09:20:39.088Z,-2.20
2022-12-12T09:23:05.731Z,-3.30
2022-12-12T09:25:32.507Z,-3.60
2022-12-12T09:28:06.704Z,-3.30
2022-12-12T09:30:33.462Z,-1.70
2022-12-12T09:33:00.215Z,-1.00
2022-12-12T09:35:26.960Z,-0.40
2022-12-12T09:37:57.284Z,-2.30
2022-12-12T09:40:30.367Z,-1.90
2022-12-12T09:43:00.161Z,-0.90
2022-12-12T09:45:28.631Z,-2.40
2022-12-12T09:47:58.344Z,0.30
2022-12-12T09:50:27.437Z,-1.00
2022-12-12T09:52:58.758Z,-1.30
2022-12-12T09:55:43.323Z,-1.50
2022-12-12T09:58:25.582Z,-0.40
2022-12-12T10:01:13.873Z,-1.10
2022-12-12T10:03:47.012Z,-0.60
2022-12-12T10:06:36.911Z,-0.40
2022-12-12T10:09:27.612Z,-0.40
2022-12-12T10:11:55.297Z,1.40
2022-12-12T10:20:38.127Z,0.90
2022-12-12T10:23:41.486Z,0.50
2022-12-12T10:26:20.004Z,1.60
2022-12-12T10:31:44.267Z,2.10
2022-12-12T10:34:27.968Z,3.10
2022-12-12T10:46:48.537Z,1.70
2022-12-12T10:49:18.558Z,1.90
2022-12-12T10:51:58.706Z,2.40
2022-12-12T10:54:41.097Z,1.10
2022-12-12T10:57:08.546Z,1.30
2022-12-12T10:59:51.767Z,1.00
2022-12-12T11:02:40.483Z,0.70
2022-12-12T11:05:11.761Z,-0.20
2022-12-12T11:07:51.447Z,1.20
2022-12-12T11:10:42.385Z,1.40
2022-12-12T11:13:09.372Z,1.70
2022-12-12T11:15:39.633Z,2.80
2022-12-12T11:18:06.758Z,1.90
2022-12-12T11:20:34.297Z,1.80
2022-12-12T11:26:14.280Z,2.60
2022-12-12T11:51:22.259Z,2.60
2022-12-12T11:55:07.077Z,2.60
2022-12-12T11:58:29.737Z,3.20
2022-12-12T12:05:12.045Z,2.50
2022-12-12T12:41:41.183Z,1.30
2022-12-12T13:49:07.618Z,0.80
2022-12-12T13:51:46.694Z,1.10
2022-12-12T13:54:14.681Z,0.50
2022-12-12T13:56:45.853Z,2.00
2022-12-12T13:59:21.792Z,0.20
2022-12-12T14:01:49.721Z,0.50
2022-12-12T14:04:44.665Z,1.80
2022-12-12T14:07:25.642Z,-0.20
2022-12-12T14:09:54.900Z,0.20
2022-12-12T14:12:33.660Z,-1.10
2022-12-12T14:15:01.938Z,0.00
2022-12-12T14:17:30.101Z,0.20
2022-12-12T14:19:58.921Z,0.00
2022-12-12T14:22:30.010Z,1.50
2022-12-12T14:25:07.319Z,1.50
2022-12-12T14:27:49.294Z,0.80
2022-12-12T14:30:23.930Z,0.10
2022-12-12T14:32:53.644Z,0.10
2022-12-12T14:35:25.027Z,0.70
2022-12-12T15:03:13.697Z,-1.10
2022-12-12T15:05:40.981Z,-1.20
2022-12-12T15:09:00.481Z,-1.20
2022-12-12T15:16:56.565Z,-1.60
2022-12-12T15:19:29.318Z,-1.70
2022-12-12T15:24:47.171Z,-2.40
2022-12-12T15:27:38.638Z,-0.30
2022-12-12T15:30:25.069Z,-1.80
2022-12-12T15:32:51.986Z,-2.40
2022-12-12T15:35:20.365Z,-0.70
2022-12-12T15:37:54.641Z,-2.10
2022-12-12T15:40:40.346Z,-2.40
2022-12-12T15:43:11.755Z,-2.50
2022-12-12T15:45:40.505Z,-2.40
2022-12-12T15:48:08.045Z,-1.10
2022-12-12T15:50:43.950Z,-0.60
2022-12-12T15:53:29.864Z,-1.90
2022-12-12T15:56:05.008Z,-2.40
2022-12-12T15:58:37.903Z,-2.30
2022-12-12T16:01:21.060Z,-2.40
2022-12-12T16:04:01.073Z,-1.20
2022-12-12T16:06:38.584Z,-2.60
2022-12-12T16:09:16.704Z,-2.40
2022-12-12T16:11:47.685Z,-2.50
2022-12-12T16:14:39.637Z,-3.00
2022-12-12T16:17:12.155Z,-2.70
2022-12-12T16:19:48.136Z,-4.20
2022-12-12T16:22:18.916Z,-2.60
2022-12-12T16:24:47.277Z,-2.60
2022-12-12T16:27:14.077Z,-2.70
2022-12-12T16:29:40.841Z,-0.80
2022-12-12T16:32:09.628Z,-0.80
2022-12-12T16:34:36.428Z,-0.60
2022-12-12T16:37:03.145Z,-2.50
2022-12-12T16:39:29.829Z,-0.10
2022-12-12T16:41:56.644Z,-1.70
2022-12-12T16:44:23.295Z,-0.90
2022-12-12T16:46:50.049Z,-0.80
2022-12-12T16:49:16.856Z,-2.00
2022-12-12T16:51:43.631Z,-1.50
2022-12-12T16:54:17.080Z,-1.40
2022-12-12T16:56:44.299Z,-1.90
2022-12-12T16:59:11.091Z,-1.20
2022-12-12T17:01:39.284Z,-1.70
2022-12-12T17:04:07.200Z,-1.70
2022-12-12T17:06:33.929Z,-1.00
2022-12-12T17:09:00.595Z,-0.10
2022-12-12T17:11:27.274Z,-0.70
2022-12-12T17:13:53.991Z,-1.70
2022-12-12T17:16:27.402Z,-1.80
2022-12-12T17:18:54.655Z,-1.10
2022-12-12T17:21:21.443Z,-1.90
2022-12-12T17:23:48.289Z,-0.30
2022-12-12T17:26:15.167Z,-2.10
2022-12-12T17:28:41.904Z,-1.70
2022-12-12T17:31:09.096Z,-0.20
2022-12-12T17:33:45.910Z,-1.90
2022-12-12T17:36:17.075Z,-1.90
2022-12-12T17:38:43.767Z,-2.00
2022-12-12T17:41:10.997Z,-1.50
2022-12-12T17:43:38.112Z,-0.70
2022-12-12T17:46:06.913Z,-1.20
2022-12-12T17:48:34.791Z,-2.10
2022-12-12T17:51:02.706Z,-1.20
2022-12-12T17:53:32.345Z,-1.80
2022-12-12T17:56:01.211Z,-1.30
2022-12-12T17:58:31.695Z,-1.50
2022-12-12T18:00:58.760Z,-3.20
2022-12-12T18:03:31.060Z,-0.80
2022-12-12T18:05:59.848Z,-2.80
2022-12-12T18:08:26.585Z,-1.20
2022-12-12T18:10:53.312Z,-1.60
2022-12-12T18:19:57.354Z,-2.70
2022-12-12T18:26:44.272Z,-2.80
2022-12-12T18:29:24.973Z,-3.30
2022-12-12T18:31:59.260Z,-4.60
2022-12-12T18:34:26.745Z,-2.70
2022-12-12T18:37:00.412Z,-2.80
2022-12-12T18:39:32.813Z,-3.10
2022-12-12T18:42:02.542Z,-4.40
2022-12-12T18:44:36.618Z,-2.10
2022-12-12T18:47:03.656Z,-2.20
2022-12-12T18:49:50.616Z,-2.80
2022-12-12T18:52:28.699Z,-3.50
2022-12-12T18:55:28.713Z,-3.60
2022-12-12T18:58:16.460Z,-4.00
2022-12-12T19:03:45.366Z,-2.30
2022-12-12T19:06:35.543Z,-4.50
2022-12-12T19:09:14.744Z,-4.50
2022-12-12T19:12:12.636Z,-3.90
2022-12-12T19:15:17.989Z,-4.90
2022-12-12T19:17:58.337Z,-4.90
2022-12-12T19:21:09.474Z,-4.80
2022-12-12T19:23:55.033Z,-4.70
2022-12-12T19:26:33.137Z,-4.00
2022-12-12T19:32:52.811Z,-4.40
2022-12-12T19:35:46.698Z,-3.70
2022-12-12T19:58:27.148Z,-5.60
2022-12-12T20:01:06.504Z,-5.00
2022-12-12T20:03:43.528Z,-4.80
2022-12-12T20:06:20.521Z,-5.80
2022-12-12T20:08:56.561Z,-4.90
2022-12-12T20:11:30.251Z,-4.60
2022-12-12T20:14:00.022Z,-5.30
2022-12-12T20:16:28.171Z,-5.00
2022-12-12T20:18:58.484Z,-5.50
2022-12-12T20:22:10.723Z,-7.10
2022-12-12T20:24:33.269Z,-5.00
2022-12-12T20:27:00.603Z,-4.40
2022-12-12T20:29:27.744Z,-6.50
2022-12-12T20:31:54.593Z,-4.30
2022-12-12T20:34:25.191Z,-4.40
2022-12-12T20:36:52.450Z,-4.80
2022-12-12T20:39:20.901Z,-4.40
2022-12-12T20:41:48.288Z,-4.70
2022-12-12T20:44:15.131Z,-5.00
2022-12-12T20:46:43.520Z,-4.30
2022-12-12T20:49:13.105Z,-6.30
2022-12-12T20:51:59.107Z,-5.20
2022-12-12T20:54:39.471Z,-6.30
2022-12-12T20:57:06.332Z,-5.60
2022-12-12T20:59:33.232Z,-4.20
2022-12-12T21:02:02.386Z,-5.20
2022-12-12T21:04:29.297Z,-5.50
2022-12-12T21:06:56.033Z,-6.20
2022-12-12T21:09:30.446Z,-6.50
2022-12-12T21:11:58.525Z,-5.00
2022-12-12T21:14:26.850Z,-5.20
2022-12-12T21:16:53.743Z,-6.60
2022-12-12T21:19:21.139Z,-5.00
2022-12-12T21:21:47.845Z,-7.50
2022-12-12T21:24:15.631Z,-5.60
2022-12-12T21:26:42.417Z,-6.60
2022-12-12T21:29:09.283Z,-7.10
2022-12-12T21:31:37.507Z,-5.50
2022-12-12T21:34:05.299Z,-5.30
2022-12-12T21:36:32.924Z,-7.80
2022-12-12T21:39:00.251Z,-6.00
2022-12-12T21:41:27.092Z,-7.60
2022-12-12T21:43:55.257Z,-5.40
2022-12-12T21:46:23.616Z,-5.80
2022-12-12T21:49:10.549Z,-5.40
2022-12-12T21:51:37.437Z,-7.70
2022-12-12T21:54:04.973Z,-5.90
2022-12-12T21:56:32.044Z,-6.90
2022-12-12T21:58:59.188Z,-5.30
2022-12-12T22:01:26.375Z,-6.60
2022-12-12T22:03:53.565Z,-7.30
2022-12-12T22:06:22.541Z,-5.60
2022-12-12T22:08:49.727Z,-6.10
2022-12-12T22:11:40.447Z,-4.50
2022-12-12T22:14:04.781Z,-6.50
2022-12-12T22:16:33.638Z,-7.40
2022-12-12T22:19:16.849Z,-5.60
2022-12-12T22:21:44.641Z,-7.00
2022-12-12T22:24:11.435Z,-5.10
2022-12-12T22:26:40.038Z,-5.70
2022-12-12T22:29:14.242Z,-6.40
2022-12-12T22:31:41.415Z,-7.40
2022-12-12T22:34:12.972Z,-5.40
2022-12-12T22:36:40.172Z,-5.40
2022-12-12T22:39:07.853Z,-6.20
2022-12-12T22:41:34.912Z,-7.70
2022-12-12T22:44:03.077Z,-5.60
2022-12-12T22:46:29.908Z,-6.60
2022-12-12T22:48:58.128Z,-5.70
2022-12-12T22:51:26.009Z,-8.00
2022-12-12T22:53:55.393Z,-6.00
2022-12-12T22:56:22.425Z,-8.30
2022-12-12T22:58:49.144Z,-7.50
2022-12-12T23:01:17.406Z,-7.60
2022-12-12T23:03:44.417Z,-5.80
2022-12-12T23:06:14.172Z,-7.50
2022-12-12T23:08:41.331Z,-5.30
2022-12-12T23:11:13.398Z,-5.70
2022-12-12T23:13:42.713Z,-7.00
2022-12-12T23:16:10.856Z,-8.20
2022-12-12T23:18:38.667Z,-7.50
2022-12-12T23:21:06.685Z,-6.60
2022-12-12T23:23:34.359Z,-6.60
2022-12-12T23:26:05.769Z,-7.00
2022-12-12T23:28:33.001Z,-8.50
2022-12-12T23:31:00.351Z,-7.50
2022-12-12T23:33:27.107Z,-6.00
2022-12-12T23:35:53.826Z,-6.40
2022-12-12T23:38:20.525Z,-6.90
2022-12-12T23:40:47.340Z,-8.10
2022-12-12T23:43:14.135Z,-7.00
2022-12-12T23:45:41.013Z,-6.70
2022-12-12T23:48:07.766Z,-5.70
2022-12-12T23:50:34.708Z,-6.20
2022-12-12T23:53:06.193Z,-7.70
2022-12-12T23:55:35.968Z,-6.30
2022-12-12T23:58:02.740Z,-5.90
